createdAt,value
2018-11-14T00:02:11.388Z,11.60
2018-11-14T00:12:13.195Z,11.60
2018-11-14T00:14:40.165Z,11.60
2018-11-14T00:17:07.012Z,11.50
2018-11-14T00:19:34.285Z,11.60
2018-11-14T00:22:00.779Z,11.50
2018-11-14T00:24:27.588Z,11.50
2018-11-14T00:26:54.501Z,11.50
2018-11-14T00:29:21.285Z,11.20
2018-11-14T00:31:48.251Z,11.50
2018-11-14T00:34:15.028Z,11.50
2018-11-14T00:36:41.831Z,11.50
2018-11-14T00:39:10.116Z,11.50
2018-11-14T00:41:37.334Z,11.40
2018-11-14T00:44:04.134Z,11.50
2018-11-14T00:46:31.269Z,11.50
2018-11-14T00:48:58.271Z,11.40
2018-11-14T00:51:25.136Z,11.40
2018-11-14T00:53:51.901Z,11.40
2018-11-14T00:56:18.767Z,11.40
2018-11-14T00:58:45.775Z,11.40
2018-11-14T01:01:12.605Z,11.40
2018-11-14T01:03:39.442Z,11.40
2018-11-14T01:06:06.603Z,11.40
2018-11-14T01:08:33.364Z,11.40
2018-11-14T01:11:00.502Z,11.40
2018-11-14T01:13:27.296Z,11.40
2018-11-14T01:15:54.336Z,11.30
2018-11-14T01:18:21.320Z,11.40
2018-11-14T01:20:48.471Z,11.30
2018-11-14T01:23:15.564Z,11.30
2018-11-14T01:25:42.376Z,11.30
2018-11-14T01:28:09.136Z,11.30
2018-11-14T01:30:36.020Z,11.30
2018-11-14T01:33:03.132Z,11.30
2018-11-14T01:35:29.936Z,11.30
2018-11-14T01:37:56.749Z,11.30
2018-11-14T01:40:24.845Z,11.30
2018-11-14T01:42:53.015Z,11.30
2018-11-14T01:45:20.024Z,11.30
2018-11-14T01:47:47.251Z,11.30
2018-11-14T01:50:14.020Z,11.30
2018-11-14T01:52:40.993Z,11.30
2018-11-14T01:55:07.810Z,11.30
2018-11-14T01:57:34.682Z,11.20
2018-11-14T02:00:01.543Z,11.20
2018-11-14T02:02:28.288Z,11.20
2018-11-14T02:04:55.160Z,11.20
2018-11-14T02:07:22.175Z,11.20
2018-11-14T02:09:49.217Z,11.20
2018-11-14T02:12:15.941Z,11.20
2018-11-14T02:14:43.161Z,11.20
2018-11-14T02:17:10.113Z,11.20
2018-11-14T02:19:37.962Z,11.20
2018-11-14T02:22:04.809Z,11.10
2018-11-14T02:24:31.617Z,11.10
2018-11-14T02:26:58.403Z,11.10
2018-11-14T02:29:25.273Z,11.10
2018-11-14T02:31:52.160Z,11.10
2018-11-14T02:34:19.123Z,11.10
2018-11-14T02:36:45.920Z,11.10
2018-11-14T02:39:13.223Z,11.10
2018-11-14T02:41:40.137Z,11.10
2018-11-14T02:44:07.256Z,11.10
2018-11-14T02:46:34.206Z,11.10
2018-11-14T02:49:01.005Z,11.10
2018-11-14T02:51:28.978Z,11.00
2018-11-14T02:53:55.899Z,11.00
2018-11-14T02:56:22.702Z,11.00
2018-11-14T02:58:49.583Z,11.00
2018-11-14T03:01:16.697Z,11.00
2018-11-14T03:03:43.748Z,11.00
2018-11-14T03:06:10.694Z,11.00
2018-11-14T03:08:37.839Z,11.00
2018-11-14T03:11:04.654Z,11.00
2018-11-14T03:13:31.410Z,10.90
2018-11-14T03:15:58.820Z,11.00
2018-11-14T03:18:25.780Z,10.90
2018-11-14T03:20:52.944Z,10.90
2018-11-14T03:23:19.878Z,10.90
2018-11-14T03:25:46.704Z,10.90
2018-11-14T03:28:13.664Z,10.90
2018-11-14T03:30:41.181Z,10.90
2018-11-14T03:33:08.170Z,10.90
2018-11-14T03:35:54.156Z,11.00
2018-11-14T03:38:39.660Z,10.90
2018-11-14T03:41:06.506Z,10.90
2018-11-14T03:43:33.283Z,10.90
2018-11-14T03:46:00.158Z,10.80
2018-11-14T03:48:26.878Z,10.80
2018-11-14T03:50:53.803Z,10.70
2018-11-14T03:53:21.165Z,10.80
2018-11-14T03:55:48.185Z,10.80
2018-11-14T03:58:15.144Z,10.80
2018-11-14T04:00:41.956Z,10.80
2018-11-14T04:03:08.930Z,10.80
2018-11-14T04:05:35.793Z,10.80
2018-11-14T04:08:02.486Z,10.80
2018-11-14T04:10:29.435Z,10.80
2018-11-14T04:12:56.384Z,10.80
2018-11-14T04:15:23.215Z,10.80
2018-11-14T04:17:50.111Z,10.70
2018-11-14T04:20:17.704Z,10.70
2018-11-14T04:22:44.973Z,10.70
2018-11-14T04:25:12.829Z,10.70
2018-11-14T04:27:40.039Z,10.70
2018-11-14T04:30:06.963Z,10.70
2018-11-14T04:32:33.801Z,10.70
2018-11-14T04:35:00.589Z,10.70
2018-11-14T04:37:27.490Z,10.70
2018-11-14T04:39:54.328Z,10.60
2018-11-14T04:42:21.095Z,10.60
2018-11-14T04:44:48.013Z,10.60
2018-11-14T04:47:15.378Z,10.70
2018-11-14T04:49:42.577Z,10.60
2018-11-14T04:52:09.826Z,10.60
2018-11-14T04:54:36.631Z,10.60
2018-11-14T04:57:03.391Z,10.60
2018-11-14T04:59:30.350Z,10.60
2018-11-14T05:01:57.159Z,10.60
2018-11-14T05:04:23.938Z,10.60
2018-11-14T05:06:50.808Z,10.60
2018-11-14T05:09:17.637Z,10.60
2018-11-14T05:11:44.727Z,10.50
2018-11-14T05:14:11.651Z,10.50
2018-11-14T05:16:38.855Z,10.50
2018-11-14T05:19:05.754Z,10.50
2018-11-14T05:21:33.152Z,10.50
2018-11-14T05:23:59.940Z,10.50
2018-11-14T05:26:26.674Z,10.30
2018-11-14T05:28:54.126Z,10.50
2018-11-14T05:31:21.366Z,10.50
2018-11-14T05:33:48.112Z,10.50
2018-11-14T05:36:15.156Z,10.50
2018-11-14T05:38:42.012Z,10.50
2018-11-14T05:41:09.214Z,10.50
2018-11-14T05:43:35.951Z,10.50
2018-11-14T05:46:03.034Z,10.50
2018-11-14T05:48:29.796Z,10.40
2018-11-14T05:50:56.698Z,10.40
2018-11-14T05:53:24.747Z,10.40
2018-11-14T05:55:51.545Z,10.40
2018-11-14T05:58:18.973Z,10.40
2018-11-14T06:00:45.796Z,10.40
2018-11-14T06:03:12.642Z,10.40
2018-11-14T06:05:39.431Z,10.40
2018-11-14T06:08:06.186Z,10.40
2018-11-14T06:10:32.980Z,10.40
2018-11-14T06:12:59.853Z,10.40
2018-11-14T06:15:26.717Z,10.40
2018-11-14T06:17:54.739Z,10.40
2018-11-14T06:20:22.407Z,10.40
2018-11-14T06:22:50.069Z,10.00
2018-11-14T06:25:17.222Z,10.40
2018-11-14T06:27:44.475Z,10.30
2018-11-14T06:30:11.241Z,10.30
2018-11-14T06:32:38.210Z,10.30
2018-11-14T06:35:05.010Z,10.30
2018-11-14T06:37:31.996Z,10.30
2018-11-14T06:39:58.931Z,10.30
2018-11-14T06:42:25.823Z,10.30
2018-11-14T06:44:52.695Z,10.30
2018-11-14T06:47:19.565Z,10.30
2018-11-14T06:49:46.446Z,10.30
2018-11-14T06:52:13.598Z,10.30
2018-11-14T06:54:40.495Z,10.30
2018-11-14T06:57:07.312Z,10.20
2018-11-14T06:59:34.281Z,10.20
2018-11-14T07:02:01.222Z,10.20
2018-11-14T07:04:28.061Z,10.20
2018-11-14T07:06:55.375Z,10.00
2018-11-14T07:09:22.271Z,10.20
2018-11-14T07:11:49.481Z,10.20
2018-11-14T07:14:16.327Z,10.20
2018-11-14T07:16:43.221Z,10.20
2018-11-14T07:19:10.017Z,10.20
2018-11-14T07:21:36.879Z,10.20
2018-11-14T07:24:03.709Z,10.10
2018-11-14T07:26:30.643Z,10.10
2018-11-14T07:28:57.505Z,10.10
2018-11-14T07:31:24.296Z,10.10
2018-11-14T07:33:51.283Z,10.10
2018-11-14T07:36:18.229Z,10.10
2018-11-14T07:38:49.099Z,10.10
2018-11-14T07:41:16.136Z,10.10
2018-11-14T07:43:43.313Z,10.10
2018-11-14T07:46:10.917Z,10.10
2018-11-14T07:48:38.200Z,10.10
2018-11-14T07:51:05.019Z,10.10
2018-11-14T07:53:32.328Z,10.10
2018-11-14T07:55:59.623Z,10.10
2018-11-14T07:58:26.423Z,10.10
2018-11-14T08:00:53.989Z,10.10
2018-11-14T08:03:21.014Z,10.10
2018-11-14T08:05:48.008Z,10.10
2018-11-14T08:08:14.842Z,10.10
2018-11-14T08:10:41.866Z,10.00
2018-11-14T08:13:08.902Z,10.00
2018-11-14T08:15:35.736Z,10.00
2018-11-14T08:18:02.501Z,10.10
2018-11-14T08:20:29.418Z,10.00
2018-11-14T08:22:56.241Z,10.00
2018-11-14T08:25:23.044Z,10.00
2018-11-14T08:27:49.792Z,10.00
2018-11-14T08:30:16.850Z,10.00
2018-11-14T08:32:43.750Z,10.00
2018-11-14T08:35:11.277Z,10.00
2018-11-14T08:37:38.648Z,10.00
2018-11-14T08:40:06.134Z,10.00
2018-11-14T08:42:32.906Z,10.00
2018-11-14T08:44:59.698Z,10.00
2018-11-14T08:47:26.698Z,10.00
2018-11-14T08:49:53.559Z,10.00
2018-11-14T08:52:20.577Z,10.00
2018-11-14T08:54:47.360Z,10.00
2018-11-14T08:57:14.174Z,10.00
2018-11-14T08:59:41.712Z,10.10
2018-11-14T09:02:08.506Z,10.00
2018-11-14T09:04:35.326Z,10.10
2018-11-14T09:07:02.238Z,10.00
2018-11-14T09:09:29.153Z,10.10
2018-11-14T09:11:55.915Z,10.10
2018-11-14T09:14:22.871Z,10.10
2018-11-14T09:16:49.699Z,10.10
2018-11-14T09:19:16.968Z,10.10
2018-11-14T09:21:43.766Z,10.10
2018-11-14T09:24:10.867Z,10.10
2018-11-14T09:26:37.790Z,10.10
2018-11-14T09:29:04.631Z,10.10
2018-11-14T09:31:31.498Z,10.10
2018-11-14T09:33:58.952Z,10.20
2018-11-14T09:36:25.849Z,10.20
2018-11-14T09:38:52.709Z,10.20
2018-11-14T09:41:19.487Z,10.20
2018-11-14T09:43:46.271Z,10.20
2018-11-14T09:46:13.036Z,10.20
2018-11-14T09:48:39.816Z,10.20
2018-11-14T09:51:06.627Z,10.30
2018-11-14T09:53:33.431Z,10.30
2018-11-14T09:56:00.335Z,10.30
2018-11-14T09:58:27.110Z,10.30
2018-11-14T10:00:54.041Z,10.30
2018-11-14T10:03:20.882Z,10.30
2018-11-14T10:05:47.849Z,10.30
2018-11-14T10:08:14.719Z,10.40
2018-11-14T10:10:41.760Z,10.00
2018-11-14T10:13:08.560Z,10.40
2018-11-14T10:15:35.426Z,10.40
2018-11-14T10:18:02.305Z,10.40
2018-11-14T10:20:29.208Z,10.40
2018-11-14T10:22:56.132Z,10.50
2018-11-14T10:25:23.064Z,10.50
2018-11-14T10:27:50.446Z,10.50
2018-11-14T10:30:27.507Z,10.50
2018-11-14T10:32:54.476Z,10.50
2018-11-14T10:35:21.417Z,10.50
2018-11-14T10:37:48.209Z,10.50
2018-11-14T10:40:16.233Z,10.60
2018-11-14T10:42:43.349Z,10.60
2018-11-14T10:45:10.821Z,10.60
2018-11-14T10:47:37.695Z,10.60
2018-11-14T10:50:04.657Z,10.60
2018-11-14T10:52:31.468Z,10.70
2018-11-14T10:54:58.253Z,10.70
2018-11-14T10:57:25.023Z,10.50
2018-11-14T10:59:51.795Z,10.70
2018-11-14T11:02:36.701Z,10.80
2018-11-14T11:05:21.172Z,10.80
2018-11-14T11:08:05.932Z,10.80
2018-11-14T11:11:06.925Z,10.80
2018-11-14T11:14:02.076Z,10.80
2018-11-14T11:16:29.389Z,10.90
2018-11-14T11:18:56.295Z,10.90
2018-11-14T11:21:23.653Z,10.90
2018-11-14T11:23:50.435Z,11.00
2018-11-14T11:26:17.249Z,11.00
2018-11-14T11:28:44.321Z,11.00
2018-11-14T11:31:11.161Z,11.00
2018-11-14T11:33:38.495Z,11.00
2018-11-14T11:36:05.634Z,11.10
2018-11-14T11:38:32.765Z,11.10
2018-11-14T11:40:59.672Z,11.10
2018-11-14T11:43:26.866Z,11.20
2018-11-14T11:45:53.640Z,11.20
2018-11-14T11:48:20.547Z,11.20
2018-11-14T11:50:47.598Z,11.20
2018-11-14T11:53:14.433Z,11.30
2018-11-14T11:55:41.198Z,11.30
2018-11-14T11:58:08.469Z,11.30
2018-11-14T12:00:35.468Z,11.30
2018-11-14T12:03:02.154Z,11.40
2018-11-14T12:05:29.087Z,11.40
2018-11-14T12:07:55.974Z,11.40
2018-11-14T12:10:22.804Z,11.50
2018-11-14T12:12:50.085Z,11.50
2018-11-14T12:15:17.054Z,11.50
2018-11-14T12:17:44.267Z,11.50
2018-11-14T12:20:12.639Z,11.60
2018-11-14T12:22:40.066Z,11.60
2018-11-14T12:25:07.227Z,11.60
2018-11-14T12:27:34.335Z,11.60
2018-11-14T12:30:01.183Z,11.70
2018-11-14T12:32:27.935Z,11.70
2018-11-14T12:34:55.361Z,11.70
2018-11-14T12:37:22.386Z,11.80
2018-11-14T12:39:49.258Z,11.80
2018-11-14T12:42:16.377Z,11.80
2018-11-14T12:44:43.383Z,11.80
2018-11-14T12:47:10.288Z,11.90
2018-11-14T12:49:37.108Z,11.90
2018-11-14T12:52:03.948Z,11.90
2018-11-14T12:54:30.873Z,11.90
2018-11-14T12:56:57.635Z,11.90
2018-11-14T12:59:24.710Z,12.00
2018-11-14T13:01:51.531Z,12.00
2018-11-14T13:04:18.299Z,12.00
2018-11-14T13:06:45.066Z,12.10
2018-11-14T13:09:11.880Z,12.10
2018-11-14T13:11:39.048Z,12.10
2018-11-14T13:14:05.937Z,12.10
2018-11-14T13:16:32.716Z,12.20
2018-11-14T13:18:59.665Z,12.20
2018-11-14T13:21:26.570Z,12.20
2018-11-14T13:23:53.751Z,12.20
2018-11-14T13:26:21.003Z,12.20
2018-11-14T13:28:47.883Z,12.20
2018-11-14T13:31:14.880Z,12.20
2018-11-14T13:33:41.783Z,12.30
2018-11-14T13:36:08.629Z,12.30
2018-11-14T13:38:35.413Z,12.30
2018-11-14T13:41:03.671Z,12.30
2018-11-14T13:43:29.120Z,12.30
2018-11-14T13:45:56.271Z,12.40
2018-11-14T13:48:23.135Z,12.40
2018-11-14T13:50:50.303Z,12.40
2018-11-14T13:53:16.877Z,12.40
2018-11-14T13:55:43.939Z,12.40
2018-11-14T13:58:10.803Z,12.40
2018-11-14T14:00:37.551Z,12.50
2018-11-14T14:03:04.378Z,12.50
2018-11-14T14:05:31.281Z,12.50
2018-11-14T14:07:58.305Z,12.50
2018-11-14T14:10:25.043Z,12.50
2018-11-14T14:12:53.033Z,12.50
2018-11-14T14:15:26.905Z,12.50
2018-11-14T14:17:53.725Z,12.50
2018-11-14T14:20:21.161Z,12.50
2018-11-14T14:22:48.172Z,12.50
2018-11-14T14:25:16.333Z,12.60
2018-11-14T14:27:43.141Z,12.60
2018-11-14T14:30:11.066Z,12.60
2018-11-14T14:32:38.526Z,12.60
2018-11-14T14:35:05.471Z,12.60
2018-11-14T14:37:32.850Z,12.60
2018-11-14T14:39:59.822Z,12.60
2018-11-14T14:42:27.146Z,12.60
2018-11-14T14:44:54.057Z,12.60
2018-11-14T14:47:21.136Z,12.60
2018-11-14T14:49:48.041Z,12.60
2018-11-14T14:52:15.198Z,12.60
2018-11-14T14:54:42.153Z,12.70
2018-11-14T14:57:09.003Z,12.60
2018-11-14T14:59:35.799Z,12.60
2018-11-14T15:02:03.076Z,12.70
2018-11-14T15:04:30.409Z,12.60
2018-11-14T15:06:57.199Z,12.70
2018-11-14T15:09:24.293Z,12.70
2018-11-14T15:11:51.142Z,12.70
2018-11-14T15:14:17.988Z,12.70
2018-11-14T15:16:44.814Z,12.70
2018-11-14T15:19:11.623Z,12.70
2018-11-14T15:21:38.747Z,12.70
2018-11-14T15:24:05.537Z,12.70
2018-11-14T15:26:32.324Z,12.70
2018-11-14T15:28:59.185Z,12.70
2018-11-14T15:31:25.931Z,12.70
2018-11-14T15:33:53.242Z,12.70
2018-11-14T15:36:20.127Z,12.70
2018-11-14T15:38:47.028Z,12.60
2018-11-14T15:41:13.999Z,12.70
2018-11-14T15:43:40.939Z,12.60
2018-11-14T15:46:07.805Z,12.60
2018-11-14T15:48:34.578Z,12.60
2018-11-14T15:51:01.358Z,12.60
2018-11-14T15:53:28.189Z,12.60
2018-11-14T15:55:54.961Z,12.60
2018-11-14T15:58:21.833Z,12.60
2018-11-14T16:00:49.035Z,12.60
2018-11-14T16:03:15.975Z,12.60
2018-11-14T16:05:42.889Z,12.60
2018-11-14T16:08:09.607Z,12.60
2018-11-14T16:10:36.442Z,12.60
2018-11-14T16:13:03.442Z,12.60
2018-11-14T16:15:34.611Z,12.60
2018-11-14T16:18:01.437Z,12.60
2018-11-14T16:20:28.296Z,12.50
2018-11-14T16:22:55.240Z,12.50
2018-11-14T16:25:23.029Z,12.50
2018-11-14T16:27:50.957Z,12.50
2018-11-14T16:30:19.324Z,12.50
2018-11-14T16:32:47.191Z,12.50
2018-11-14T16:35:14.193Z,12.50
2018-11-14T16:37:41.185Z,12.50
2018-11-14T16:40:07.913Z,12.40
2018-11-14T16:42:34.683Z,12.40
2018-11-14T16:45:01.468Z,12.40
2018-11-14T16:47:28.340Z,12.40
2018-11-14T16:49:55.483Z,12.40
2018-11-14T16:52:22.316Z,12.40
2018-11-14T16:54:49.225Z,12.40
2018-11-14T16:57:16.078Z,12.30
2018-11-14T16:59:42.876Z,12.30
2018-11-14T17:02:09.682Z,12.30
2018-11-14T17:04:36.659Z,12.30
2018-11-14T17:07:03.434Z,12.30
2018-11-14T17:09:30.543Z,12.30
2018-11-14T17:11:57.317Z,12.20
2018-11-14T17:14:24.194Z,12.20
2018-11-14T17:16:50.884Z,12.20
2018-11-14T17:19:17.686Z,12.20
2018-11-14T17:21:44.476Z,12.20
2018-11-14T17:24:11.259Z,12.20
2018-11-14T17:26:37.984Z,12.20
2018-11-14T17:29:04.815Z,12.10
2018-11-14T17:31:31.738Z,12.10
2018-11-14T17:33:58.527Z,12.10
2018-11-14T17:36:25.661Z,12.10
2018-11-14T17:38:52.749Z,12.10
2018-11-14T17:41:19.679Z,12.10
2018-11-14T17:43:47.141Z,12.00
2018-11-14T17:46:15.317Z,12.00
2018-11-14T17:48:42.466Z,12.00
2018-11-14T17:51:10.005Z,12.00
2018-11-14T17:53:37.290Z,12.00
2018-11-14T17:56:04.682Z,12.00
2018-11-14T17:58:31.501Z,11.90
2018-11-14T18:00:58.327Z,11.90
2018-11-14T18:03:25.114Z,11.90
2018-11-14T18:05:51.887Z,11.90
2018-11-14T18:08:18.796Z,11.90
2018-11-14T18:10:45.689Z,11.80
2018-11-14T18:13:12.884Z,11.80
2018-11-14T18:15:39.911Z,11.80
2018-11-14T18:18:06.738Z,12.10
2018-11-14T18:20:33.680Z,11.80
2018-11-14T18:23:01.106Z,11.80
2018-11-14T18:25:27.958Z,11.80
2018-11-14T18:27:54.760Z,11.70
2018-11-14T18:30:22.839Z,11.70
2018-11-14T18:32:49.735Z,11.70
2018-11-14T18:35:17.547Z,11.70
2018-11-14T18:37:45.030Z,11.70
2018-11-14T18:40:22.355Z,11.70
2018-11-14T18:42:49.283Z,11.70
2018-11-14T18:45:17.705Z,11.70
2018-11-14T18:47:45.057Z,11.60
2018-11-14T18:50:13.060Z,11.60
2018-11-14T18:52:39.886Z,11.60
2018-11-14T18:55:06.871Z,11.60
2018-11-14T18:57:33.787Z,11.60
2018-11-14T19:00:00.721Z,11.60
2018-11-14T19:02:27.827Z,11.60
2018-11-14T19:04:54.684Z,11.50
2018-11-14T19:07:21.484Z,11.50
2018-11-14T19:09:48.666Z,11.50
2018-11-14T19:12:15.733Z,11.50
2018-11-14T19:14:42.484Z,11.50
2018-11-14T19:17:09.266Z,11.50
2018-11-14T19:19:36.012Z,11.50
2018-11-14T19:22:02.783Z,11.40
2018-11-14T19:24:29.618Z,11.40
2018-11-14T19:26:56.510Z,11.40
2018-11-14T19:29:23.310Z,11.40
2018-11-14T19:31:50.056Z,11.40
2018-11-14T19:34:17.269Z,11.40
2018-11-14T19:36:44.079Z,11.40
2018-11-14T19:39:12.389Z,11.30
2018-11-14T19:41:40.147Z,11.30
2018-11-14T19:44:07.070Z,11.30
2018-11-14T19:46:33.819Z,11.30
2018-11-14T19:49:00.699Z,11.30
2018-11-14T19:51:27.503Z,11.30
2018-11-14T19:53:54.422Z,11.30
2018-11-14T19:56:21.273Z,11.30
2018-11-14T19:58:48.080Z,11.30
2018-11-14T20:01:15.106Z,11.20
2018-11-14T20:03:41.995Z,11.20
2018-11-14T20:06:08.823Z,11.20
2018-11-14T20:08:35.661Z,11.20
2018-11-14T20:11:02.651Z,11.20
2018-11-14T20:13:29.590Z,11.10
2018-11-14T20:15:56.796Z,11.20
2018-11-14T20:18:23.571Z,11.20
2018-11-14T20:20:50.587Z,11.10
2018-11-14T20:23:17.503Z,11.10
2018-11-14T20:25:44.348Z,11.10
2018-11-14T20:28:11.130Z,11.10
2018-11-14T20:30:39.007Z,11.10
2018-11-14T20:33:14.553Z,11.00
2018-11-14T20:35:42.439Z,11.00
2018-11-14T20:38:09.463Z,11.00
2018-11-14T20:40:36.458Z,11.00
2018-11-14T20:43:03.320Z,11.00
2018-11-14T20:45:34.023Z,11.00
2018-11-14T20:48:01.142Z,11.00
2018-11-14T20:50:28.364Z,11.00
2018-11-14T20:52:55.407Z,11.00
2018-11-14T20:55:22.214Z,11.00
2018-11-14T20:57:49.989Z,10.90
2018-11-14T21:00:23.907Z,10.90
2018-11-14T21:02:50.895Z,11.10
2018-11-14T21:05:18.117Z,10.90
2018-11-14T21:07:44.943Z,10.90
2018-11-14T21:10:13.313Z,10.90
2018-11-14T21:12:40.879Z,10.80
2018-11-14T21:15:07.783Z,10.80
2018-11-14T21:17:34.549Z,10.80
2018-11-14T21:20:01.333Z,10.80
2018-11-14T21:22:28.102Z,10.80
2018-11-14T21:24:55.292Z,10.80
2018-11-14T21:27:22.831Z,10.80
2018-11-14T21:29:49.904Z,10.80
2018-11-14T21:32:16.877Z,10.80
2018-11-14T21:34:43.709Z,10.80
2018-11-14T21:37:10.534Z,10.80
2018-11-14T21:39:37.308Z,10.80
2018-11-14T21:42:04.282Z,10.70
2018-11-14T21:44:31.122Z,10.70
2018-11-14T21:46:57.894Z,10.70
2018-11-14T21:49:28.814Z,10.70
2018-11-14T21:51:56.336Z,10.70
2018-11-14T21:54:23.359Z,10.70
2018-11-14T21:56:50.354Z,10.70
2018-11-14T21:59:17.870Z,10.60
2018-11-14T22:01:45.032Z,10.60
2018-11-14T22:04:12.214Z,10.60
2018-11-14T22:06:39.105Z,10.60
2018-11-14T22:09:05.905Z,10.60
2018-11-14T22:11:32.753Z,10.60
2018-11-14T22:13:59.523Z,10.60
2018-11-14T22:16:26.636Z,10.60
2018-11-14T22:18:53.433Z,10.60
2018-11-14T22:21:20.321Z,10.60
2018-11-14T22:23:47.013Z,10.50
2018-11-14T22:26:14.042Z,10.50
2018-11-14T22:28:40.836Z,10.50
2018-11-14T22:31:07.631Z,10.50
2018-11-14T22:33:34.381Z,10.50
2018-11-14T22:36:01.358Z,10.50
2018-11-14T22:38:28.287Z,10.50
2018-11-14T22:40:55.070Z,10.50
2018-11-14T22:43:21.833Z,10.50
2018-11-14T22:45:48.635Z,10.50
2018-11-14T22:48:15.624Z,10.50
2018-11-14T22:50:42.474Z,10.40
2018-11-14T22:53:09.311Z,10.40
2018-11-14T22:55:36.095Z,10.40
2018-11-14T22:58:02.856Z,10.40
2018-11-14T23:00:43.660Z,10.40
2018-11-14T23:03:10.404Z,10.40
2018-11-14T23:05:37.187Z,10.40
2018-11-14T23:08:03.968Z,10.40
2018-11-14T23:10:30.864Z,10.40
2018-11-14T23:12:57.642Z,10.40
2018-11-14T23:15:24.787Z,10.30
2018-11-14T23:17:51.628Z,10.30
2018-11-14T23:20:18.765Z,10.30
2018-11-14T23:22:46.272Z,10.30
2018-11-14T23:25:13.551Z,10.30
2018-11-14T23:27:42.010Z,10.30
2018-11-14T23:30:09.326Z,10.30
2018-11-14T23:32:36.292Z,10.30
2018-11-14T23:35:34.384Z,10.30
2018-11-14T23:38:02.486Z,10.30
2018-11-14T23:40:29.457Z,10.20
2018-11-14T23:42:56.331Z,10.20
2018-11-14T23:45:23.962Z,10.20
2018-11-14T23:47:51.022Z,10.20
2018-11-14T23:50:21.896Z,10.20
2018-11-14T23:52:49.636Z,10.20
2018-11-14T23:55:17.030Z,10.20
2018-11-14T23:57:43.972Z,10.20
